KFRH/FRH METAR and TAF weather

Enter ICAO airport designator
Station Type Date Time Source
KFRH METAR 2021/05/09 02:15 UTC NOAA

KFRH 090215Z AUTO 10005KT 10SM BKN080 OVC110 10/04 A2998 RMK AO1


Station Type Date Time Source
KFRH Decoded METAR 2021/05/09 02:15 UTC NOAA

Station name not available
May 08, 2021 - 10:15 PM EDT / 2021.05.09 0215 UTC
Wind: from the E (100 degrees) at 6 MPH (5 KT):0
Visibility: 10 mile(s):0
Sky conditions: overcast
Temperature: 50 F (10 C)
Dew Point: 39 F (4 C)
Relative Humidity: 66%
Pressure (altimeter): 29.98 in. Hg (1015 hPa)
ob: KFRH 090215Z AUTO 10005KT 10SM BKN080 OVC110 10/04 A2998 RMK AO1
cycle: 2

Station Type Date Time Source
KFRH TAF UTC NOAA

Error!

Example: see airport list